createdAt,value
2023-04-21T00:03:34.144Z,21.15
2023-04-21T00:06:01.810Z,24.52
2023-04-21T00:08:28.641Z,26.73
2023-04-21T00:10:55.688Z,24.25
2023-04-21T00:13:23.779Z,23.60
2023-04-21T00:15:51.518Z,23.73
2023-04-21T00:18:18.483Z,25.98
2023-04-21T00:20:45.473Z,22.70
2023-04-21T00:23:12.346Z,24.27
2023-04-21T00:25:39.434Z,21.85
2023-04-21T00:28:06.260Z,19.38
2023-04-21T00:30:33.157Z,21.35
2023-04-21T00:33:00.179Z,20.33
2023-04-21T00:35:29.205Z,21.05
2023-04-21T00:37:56.226Z,20.45
2023-04-21T00:40:23.262Z,17.25
2023-04-21T00:42:50.062Z,18.00
2023-04-21T00:45:17.029Z,16.63
2023-04-21T00:47:44.067Z,15.68
2023-04-21T00:50:12.405Z,20.20
2023-04-21T00:52:40.687Z,23.65
2023-04-21T00:55:09.074Z,21.25
2023-04-21T00:57:38.026Z,22.45
2023-04-21T01:00:11.925Z,22.00
2023-04-21T01:02:41.875Z,17.48
2023-04-21T01:05:09.557Z,17.92
2023-04-21T01:07:38.813Z,22.33
2023-04-21T01:10:06.611Z,26.02
2023-04-21T01:12:33.480Z,20.00
2023-04-21T01:15:03.436Z,26.63
2023-04-21T01:17:31.397Z,22.70
2023-04-21T01:20:02.045Z,22.48
2023-04-21T01:22:29.322Z,20.08
2023-04-21T01:24:57.596Z,20.20
2023-04-21T01:27:26.049Z,21.70
2023-04-21T01:29:54.341Z,22.20
2023-04-21T01:32:31.849Z,22.98
2023-04-21T01:34:59.426Z,20.05
2023-04-21T01:37:33.043Z,19.90
2023-04-21T01:40:02.838Z,20.98
2023-04-21T01:42:30.648Z,19.92
2023-04-21T01:44:59.134Z,20.63
2023-04-21T01:47:26.754Z,22.55
2023-04-21T01:49:53.980Z,19.95
2023-04-21T01:52:20.969Z,22.92
2023-04-21T01:54:47.848Z,22.00
2023-04-21T01:57:15.122Z,19.23
2023-04-21T01:59:42.433Z,20.98
2023-04-21T02:02:10.016Z,22.40
2023-04-21T02:04:37.152Z,20.73
2023-04-21T02:07:04.122Z,23.35
2023-04-21T02:09:32.801Z,22.35
2023-04-21T02:12:00.434Z,22.40
2023-04-21T02:14:27.564Z,21.45
2023-04-21T02:16:56.360Z,17.25
2023-04-21T02:19:24.409Z,23.75
2023-04-21T02:21:51.323Z,21.42
2023-04-21T02:24:19.050Z,19.42
2023-04-21T02:26:46.371Z,18.65
2023-04-21T02:29:13.934Z,20.83
2023-04-21T02:31:54.643Z,23.42
2023-04-21T02:34:26.939Z,26.50
2023-04-21T02:36:53.748Z,24.27
2023-04-21T02:39:21.156Z,23.23
2023-04-21T02:41:48.407Z,25.65
2023-04-21T02:44:15.145Z,23.38
2023-04-21T02:46:42.604Z,23.67
2023-04-21T02:49:10.400Z,23.20
2023-04-21T02:51:37.604Z,26.23
2023-04-21T02:54:04.597Z,30.02
2023-04-21T02:56:32.188Z,25.27
2023-04-21T02:58:59.163Z,27.67
2023-04-21T03:01:26.084Z,27.13
2023-04-21T03:03:55.360Z,27.70
2023-04-21T03:06:22.289Z,25.65
2023-04-21T03:08:49.106Z,24.95
2023-04-21T03:11:16.041Z,27.88
2023-04-21T03:13:42.908Z,28.63
2023-04-21T03:16:10.041Z,25.58
2023-04-21T03:18:36.919Z,24.70
2023-04-21T03:21:04.952Z,27.35
2023-04-21T03:23:32.019Z,25.65
2023-04-21T03:25:58.775Z,25.02
2023-04-21T03:28:25.934Z,24.20
2023-04-21T03:30:53.487Z,28.55
2023-04-21T03:33:20.388Z,24.30
2023-04-21T03:35:47.482Z,24.23
2023-04-21T03:38:14.571Z,28.65
2023-04-21T03:40:41.513Z,27.17
2023-04-21T03:43:08.352Z,25.55
2023-04-21T03:45:36.254Z,25.90
2023-04-21T03:48:03.900Z,26.70
2023-04-21T03:50:31.181Z,22.48
2023-04-21T03:55:24.861Z,24.60
2023-04-21T03:57:52.128Z,15.70
2023-04-21T04:00:21.099Z,17.30
2023-04-21T04:02:48.215Z,14.07
2023-04-21T04:05:15.144Z,19.13
2023-04-21T04:07:42.017Z,22.70
2023-04-21T04:10:09.169Z,19.23
2023-04-21T04:12:35.869Z,18.75
2023-04-21T04:15:03.345Z,15.02
2023-04-21T04:17:30.189Z,14.98
2023-04-21T04:19:57.128Z,21.48
2023-04-21T04:22:24.206Z,20.02
2023-04-21T04:24:51.453Z,18.40
2023-04-21T04:27:20.439Z,23.23
2023-04-21T04:29:49.500Z,21.88
2023-04-21T04:32:16.770Z,22.80
2023-04-21T04:34:43.771Z,19.88
2023-04-21T04:37:11.424Z,20.10
2023-04-21T04:39:39.260Z,17.55
2023-04-21T04:42:10.143Z,20.42
2023-04-21T04:44:41.694Z,16.17
2023-04-21T04:47:09.189Z,21.48
2023-04-21T04:49:36.127Z,18.33
2023-04-21T04:54:30.578Z,14.60
2023-04-21T04:56:58.703Z,16.45
2023-04-21T04:59:25.603Z,19.90
2023-04-21T05:01:55.529Z,22.75
2023-04-21T05:04:23.139Z,23.67
2023-04-21T05:06:50.828Z,20.60
2023-04-21T05:09:18.398Z,24.50
2023-04-21T05:11:45.142Z,21.92
2023-04-21T05:14:12.443Z,29.13
2023-04-21T05:16:40.164Z,27.10
2023-04-21T05:19:07.052Z,27.10
2023-04-21T05:21:34.165Z,20.75
2023-04-21T05:24:01.208Z,27.42
2023-04-21T05:26:29.165Z,26.50
2023-04-21T05:28:57.036Z,27.02
2023-04-21T05:31:25.093Z,23.38
2023-04-21T05:33:52.247Z,23.25
2023-04-21T05:36:22.454Z,19.17
2023-04-21T05:38:49.256Z,19.83
2023-04-21T05:41:16.287Z,19.42
2023-04-21T05:43:43.951Z,18.23
2023-04-21T05:46:11.454Z,19.38
2023-04-21T05:48:40.369Z,20.92
2023-04-21T05:51:11.894Z,16.40
2023-04-21T05:53:39.918Z,18.92
2023-04-21T05:56:09.043Z,18.60
2023-04-21T05:58:36.530Z,19.15
2023-04-21T06:01:04.180Z,18.67
2023-04-21T06:03:31.928Z,16.67
2023-04-21T06:06:01.455Z,15.57
2023-04-21T06:08:28.531Z,14.85
2023-04-21T06:10:55.549Z,15.98
2023-04-21T06:13:22.476Z,13.90
2023-04-21T06:15:49.376Z,14.95
2023-04-21T06:18:17.176Z,13.57
2023-04-21T06:20:50.792Z,11.00
2023-04-21T06:23:20.951Z,12.82
2023-04-21T06:25:59.287Z,13.88
2023-04-21T06:28:26.984Z,16.67
2023-04-21T06:30:54.016Z,10.93
2023-04-21T06:33:21.191Z,15.23
2023-04-21T06:35:48.037Z,11.48
2023-04-21T06:38:14.960Z,14.50
2023-04-21T06:40:42.091Z,13.50
2023-04-21T06:43:09.032Z,12.00
2023-04-21T06:45:39.150Z,14.50
2023-04-21T06:48:06.271Z,10.88
2023-04-21T06:50:33.346Z,15.40
2023-04-21T06:53:00.476Z,10.88
2023-04-21T06:55:27.670Z,11.88
2023-04-21T06:57:54.629Z,13.82
2023-04-21T07:00:22.508Z,9.85
2023-04-21T07:02:53.722Z,10.07
2023-04-21T07:05:20.962Z,10.60
2023-04-21T07:07:47.730Z,10.63
2023-04-21T07:10:19.433Z,10.48
2023-04-21T07:12:46.550Z,11.98
2023-04-21T07:15:13.578Z,12.00
2023-04-21T07:17:41.384Z,8.40
2023-04-21T07:20:09.108Z,11.88
2023-04-21T07:22:37.100Z,12.40
2023-04-21T07:25:07.952Z,10.00
2023-04-21T07:27:37.032Z,11.93
2023-04-21T07:30:05.905Z,11.13
2023-04-21T07:32:34.008Z,12.77
2023-04-21T07:35:02.123Z,13.25
2023-04-21T07:37:29.418Z,12.93
2023-04-21T07:39:56.517Z,10.60
2023-04-21T07:42:26.990Z,9.20
2023-04-21T07:44:57.658Z,14.68
2023-04-21T07:47:25.027Z,10.75
2023-04-21T07:49:52.495Z,9.32
2023-04-21T07:52:24.368Z,9.90
2023-04-21T07:54:53.959Z,8.68
2023-04-21T07:57:21.544Z,8.57
2023-04-21T07:59:49.747Z,11.43
2023-04-21T08:02:17.902Z,10.05
2023-04-21T08:04:45.656Z,9.32
2023-04-21T08:07:13.934Z,7.75
2023-04-21T08:09:41.365Z,8.93
2023-04-21T08:12:08.266Z,11.85
2023-04-21T08:14:38.066Z,9.85
2023-04-21T08:40:11.036Z,10.10
2023-04-21T08:42:42.014Z,7.45
2023-04-21T08:45:10.542Z,8.18
2023-04-21T08:47:45.946Z,7.13
2023-04-21T08:50:22.769Z,10.25
2023-04-21T08:53:18.374Z,6.88
2023-04-21T08:58:36.964Z,6.95
2023-04-21T09:01:22.535Z,7.18
2023-04-21T09:04:40.888Z,8.05
2023-04-21T09:21:03.606Z,6.93
2023-04-21T09:23:47.884Z,6.40
2023-04-21T09:26:42.482Z,9.68
2023-04-21T09:29:59.489Z,5.53
2023-04-21T09:33:20.197Z,5.93
2023-04-21T09:42:41.915Z,7.32
2023-04-21T09:46:00.668Z,4.75
2023-04-21T09:49:02.297Z,5.78
2023-04-21T09:52:16.979Z,9.23
2023-04-21T09:55:04.884Z,8.63
2023-04-21T09:57:55.094Z,5.03
2023-04-21T10:00:42.204Z,5.72
2023-04-21T10:03:26.535Z,7.10
2023-04-21T10:10:20.696Z,7.22
2023-04-21T10:13:20.715Z,4.13
2023-04-21T10:16:48.265Z,6.97
2023-04-21T10:19:54.116Z,8.07
2023-04-21T10:22:44.774Z,7.63
2023-04-21T10:28:16.701Z,5.72
2023-04-21T10:31:15.543Z,10.25
2023-04-21T10:34:21.339Z,6.50
2023-04-21T10:40:49.283Z,4.72
2023-04-21T10:44:04.121Z,5.97
2023-04-21T10:46:51.514Z,6.15
2023-04-21T10:49:44.325Z,6.38
2023-04-21T10:53:19.346Z,7.25
2023-04-21T10:56:57.554Z,6.68
2023-04-21T10:59:41.753Z,5.35
2023-04-21T11:02:20.952Z,7.25
2023-04-21T11:07:44.140Z,4.35
2023-04-21T11:09:27.723Z,8.20
2023-04-21T11:12:20.833Z,5.25
2023-04-21T11:23:25.837Z,4.45
2023-04-21T11:27:48.432Z,5.43
2023-04-21T11:34:08.063Z,5.60
2023-04-21T11:40:20.832Z,6.90
2023-04-21T11:43:43.206Z,6.20
2023-04-21T11:46:38.222Z,6.93
2023-04-21T11:49:21.951Z,6.72
2023-04-21T11:52:08.537Z,5.70
2023-04-21T11:54:50.657Z,7.80
2023-04-21T12:05:26.406Z,4.57
2023-04-21T12:27:40.197Z,5.65
2023-04-21T12:33:47.402Z,4.50
2023-04-21T12:40:14.937Z,5.97
2023-04-21T12:46:49.088Z,8.43
2023-04-21T12:49:19.223Z,6.35
2023-04-21T12:51:50.428Z,8.85
2023-04-21T12:55:36.951Z,9.68
2023-04-21T12:58:32.804Z,7.75
2023-04-21T13:01:00.353Z,22.75
2023-04-21T13:03:33.620Z,4.45
2023-04-21T13:06:15.561Z,5.22
2023-04-21T13:08:46.098Z,15.60
2023-04-21T13:11:14.372Z,8.15
2023-04-21T13:13:43.878Z,5.18
2023-04-21T13:16:15.222Z,10.60
2023-04-21T13:18:53.279Z,5.63
2023-04-21T13:21:50.122Z,8.57
2023-04-21T13:24:27.048Z,4.90
2023-04-21T13:27:00.352Z,4.68
2023-04-21T13:29:35.133Z,5.28
2023-04-21T13:32:05.364Z,5.28
2023-04-21T13:34:35.042Z,6.90
2023-04-21T13:37:06.262Z,5.85
2023-04-21T13:39:37.069Z,5.50
2023-04-21T13:42:04.399Z,4.80
2023-04-21T13:44:33.500Z,7.70
2023-04-21T13:47:08.991Z,3.42
2023-04-21T13:49:36.253Z,6.43
2023-04-21T13:52:09.599Z,5.05
2023-04-21T13:54:36.474Z,6.30
2023-04-21T13:57:06.676Z,6.43
2023-04-21T13:59:34.482Z,7.82
2023-04-21T14:02:02.007Z,9.43
2023-04-21T14:04:55.504Z,5.22
2023-04-21T14:07:26.250Z,5.47
2023-04-21T14:09:54.400Z,10.65
2023-04-21T14:12:21.792Z,10.38
2023-04-21T14:14:51.894Z,4.45
2023-04-21T14:17:20.306Z,6.78
2023-04-21T14:19:57.455Z,5.82
2023-04-21T14:22:33.126Z,5.82
2023-04-21T14:25:09.843Z,7.38
2023-04-21T14:27:45.363Z,7.22
2023-04-21T14:30:18.194Z,7.53
2023-04-21T14:32:50.309Z,6.50
2023-04-21T14:35:29.050Z,10.05
2023-04-21T14:38:08.961Z,5.88
2023-04-21T14:40:44.086Z,6.85
2023-04-21T14:43:17.830Z,5.00
2023-04-21T14:45:45.208Z,7.20
2023-04-21T14:48:14.901Z,7.90
2023-04-21T14:50:42.674Z,6.82
2023-04-21T14:53:16.614Z,9.68
2023-04-21T14:55:44.300Z,4.70
2023-04-21T14:58:17.676Z,7.63
2023-04-21T15:00:45.319Z,9.23
2023-04-21T15:03:16.871Z,34.58
2023-04-21T15:05:48.650Z,8.15
2023-04-21T15:08:21.663Z,5.85
2023-04-21T15:10:55.559Z,4.68
2023-04-21T15:13:29.613Z,6.40
2023-04-21T15:15:57.951Z,6.80
2023-04-21T15:18:25.276Z,5.00
2023-04-21T15:20:55.618Z,5.32
2023-04-21T15:23:23.113Z,3.75
2023-04-21T15:25:53.401Z,6.40
2023-04-21T15:28:22.720Z,9.77
2023-04-21T15:30:50.286Z,7.43
2023-04-21T15:33:18.953Z,4.60
2023-04-21T15:35:49.688Z,10.95
2023-04-21T15:38:19.520Z,6.03
2023-04-21T15:40:59.008Z,7.00
2023-04-21T15:43:29.147Z,9.18
2023-04-21T15:45:56.713Z,65.32
2023-04-21T15:48:24.362Z,8.05
2023-04-21T15:50:51.851Z,8.18
2023-04-21T15:53:20.067Z,9.27
2023-04-21T15:55:48.423Z,10.05
2023-04-21T15:58:18.432Z,7.53
2023-04-21T16:00:46.108Z,6.85
2023-04-21T16:03:14.227Z,7.13
2023-04-21T16:05:41.680Z,6.22
2023-04-21T16:08:09.099Z,7.45
2023-04-21T16:10:36.633Z,7.53
2023-04-21T16:13:04.380Z,6.10
2023-04-21T16:15:31.586Z,9.25
2023-04-21T16:18:00.701Z,7.22
2023-04-21T16:20:35.457Z,7.38
2023-04-21T16:23:05.881Z,5.03
2023-04-21T16:25:33.612Z,6.53
2023-04-21T16:28:00.723Z,7.85
2023-04-21T16:30:31.589Z,3.55
2023-04-21T16:33:01.222Z,4.88
2023-04-21T16:35:29.176Z,5.40
2023-04-21T16:37:59.127Z,5.53
2023-04-21T16:40:26.468Z,5.15
2023-04-21T16:42:53.510Z,5.75
2023-04-21T16:45:20.699Z,6.88
2023-04-21T16:47:47.825Z,5.32
2023-04-21T16:50:17.556Z,5.50
2023-04-21T16:52:50.674Z,5.47
2023-04-21T16:55:20.335Z,6.20
2023-04-21T16:57:48.135Z,4.38
2023-04-21T17:00:15.459Z,7.43
2023-04-21T17:02:43.213Z,4.72
2023-04-21T17:05:15.761Z,6.05
2023-04-21T17:07:45.075Z,6.38
2023-04-21T17:10:14.857Z,8.45
2023-04-21T17:12:41.972Z,6.30
2023-04-21T17:15:09.729Z,7.35
2023-04-21T17:17:42.050Z,4.95
2023-04-21T17:20:12.303Z,6.30
2023-04-21T17:22:40.603Z,5.38
2023-04-21T17:25:09.060Z,4.72
2023-04-21T17:27:38.944Z,6.40
2023-04-21T17:30:07.862Z,7.03
2023-04-21T17:32:36.455Z,7.35
2023-04-21T17:35:04.637Z,6.25
2023-04-21T17:37:35.350Z,7.85
2023-04-21T17:40:04.376Z,6.95
2023-04-21T17:42:31.517Z,5.18
2023-04-21T17:45:01.490Z,6.00
2023-04-21T17:47:29.163Z,8.60
2023-04-21T17:49:56.422Z,7.13
2023-04-21T17:52:27.113Z,5.30
2023-04-21T17:54:54.779Z,6.85
2023-04-21T17:57:22.037Z,8.38
2023-04-21T17:59:51.214Z,6.32
2023-04-21T18:02:40.289Z,7.00
2023-04-21T18:05:15.588Z,7.32
2023-04-21T18:07:42.701Z,7.28
2023-04-21T18:10:10.173Z,6.78
2023-04-21T18:12:39.572Z,6.03
2023-04-21T18:15:08.020Z,8.07
2023-04-21T18:17:37.161Z,14.25
2023-04-21T18:20:11.828Z,6.65
2023-04-21T18:23:14.424Z,7.35
2023-04-21T18:25:43.213Z,7.22
2023-04-21T18:28:40.293Z,8.52
2023-04-21T18:31:07.525Z,8.02
2023-04-21T18:33:36.427Z,9.20
2023-04-21T18:36:03.902Z,8.35
2023-04-21T18:38:31.182Z,8.60
2023-04-21T18:40:58.566Z,7.53
2023-04-21T18:43:25.470Z,6.82
2023-04-21T18:45:53.170Z,12.32
2023-04-21T18:48:20.354Z,7.13
2023-04-21T18:50:47.727Z,8.07
2023-04-21T18:53:15.288Z,8.35
2023-04-21T18:55:42.634Z,6.68
2023-04-21T18:58:10.096Z,7.05
2023-04-21T19:00:39.355Z,8.18
2023-04-21T19:03:08.675Z,8.88
2023-04-21T19:05:37.980Z,7.30
2023-04-21T19:08:05.661Z,9.63
2023-04-21T19:10:35.110Z,9.50
2023-04-21T19:13:02.268Z,8.80
2023-04-21T19:15:29.855Z,9.18
2023-04-21T19:17:57.030Z,7.68
2023-04-21T19:20:26.538Z,9.07
2023-04-21T19:22:56.520Z,8.57
2023-04-21T19:25:23.878Z,13.55
2023-04-21T19:27:51.615Z,10.20
2023-04-21T19:30:18.698Z,12.00
2023-04-21T19:32:45.774Z,10.25
2023-04-21T19:35:16.419Z,12.98
2023-04-21T19:37:46.600Z,10.95
2023-04-21T19:40:14.350Z,11.40
2023-04-21T19:42:41.950Z,10.75
2023-04-21T19:45:10.198Z,14.43
2023-04-21T19:47:37.251Z,10.43
2023-04-21T19:50:05.234Z,11.13
2023-04-21T19:52:32.131Z,10.57
2023-04-21T19:54:59.672Z,10.95
2023-04-21T19:57:26.979Z,11.10
2023-04-21T19:59:54.109Z,9.30
2023-04-21T20:02:24.265Z,11.73
2023-04-21T20:04:53.041Z,10.65
2023-04-21T20:07:20.598Z,11.75
2023-04-21T20:09:48.199Z,10.77
2023-04-21T20:12:16.649Z,9.75
2023-04-21T20:14:43.453Z,11.73
2023-04-21T20:17:10.596Z,11.48
2023-04-21T20:19:40.574Z,11.30
2023-04-21T20:22:08.588Z,12.73
2023-04-21T20:24:36.662Z,15.10
2023-04-21T20:27:04.842Z,9.73
2023-04-21T20:29:33.416Z,10.70
2023-04-21T20:32:02.524Z,13.10
2023-04-21T20:34:29.544Z,11.20
2023-04-21T20:36:56.866Z,11.45
2023-04-21T20:39:25.120Z,12.43
2023-04-21T20:42:04.690Z,10.57
2023-04-21T20:44:39.043Z,11.90
2023-04-21T20:47:06.243Z,11.38
2023-04-21T20:49:33.424Z,11.45
2023-04-21T20:52:01.549Z,12.15
2023-04-21T20:54:28.892Z,11.80
2023-04-21T20:56:55.813Z,11.13
2023-04-21T20:59:22.784Z,13.65
2023-04-21T21:01:49.857Z,15.65
2023-04-21T21:04:17.082Z,11.10
2023-04-21T21:06:44.094Z,10.85
2023-04-21T21:09:11.718Z,11.10
2023-04-21T21:11:38.674Z,13.63
2023-04-21T21:14:05.745Z,12.07
2023-04-21T21:16:35.756Z,10.90
2023-04-21T21:19:02.997Z,10.98
2023-04-21T21:21:29.901Z,13.13
2023-04-21T21:23:56.878Z,11.35
2023-04-21T21:26:23.777Z,10.63
2023-04-21T21:28:50.876Z,13.07
2023-04-21T21:31:18.091Z,12.20
2023-04-21T21:33:45.103Z,11.63
2023-04-21T21:36:11.997Z,14.90
2023-04-21T21:38:39.086Z,14.93
2023-04-21T21:41:07.680Z,14.65
2023-04-21T21:43:35.028Z,12.52
2023-04-21T21:46:02.141Z,15.48
2023-04-21T21:48:29.379Z,13.20
2023-04-21T21:50:56.240Z,13.10
2023-04-21T21:53:23.255Z,12.38
2023-04-21T21:55:50.240Z,12.43
2023-04-21T21:58:17.241Z,13.80
2023-04-21T22:00:44.176Z,16.80
2023-04-21T22:03:11.697Z,12.50
2023-04-21T22:05:39.178Z,13.88
2023-04-21T22:08:06.210Z,8.05
2023-04-21T22:10:34.514Z,9.25
2023-04-21T22:13:02.028Z,11.40
2023-04-21T22:15:29.012Z,16.02
2023-04-21T22:17:56.026Z,10.48
2023-04-21T22:20:22.949Z,9.88
2023-04-21T22:22:49.857Z,10.45
2023-04-21T22:25:16.917Z,11.55
2023-04-21T22:27:43.804Z,12.82
2023-04-21T22:30:14.585Z,9.52
2023-04-21T22:32:41.650Z,12.90
2023-04-21T22:35:08.885Z,10.68
2023-04-21T22:37:35.951Z,12.82
2023-04-21T22:40:04.604Z,11.45
2023-04-21T22:42:31.536Z,9.98
2023-04-21T22:44:59.424Z,11.60
2023-04-21T22:47:26.573Z,11.50
2023-04-21T22:49:55.729Z,10.98
2023-04-21T22:52:23.203Z,11.90
2023-04-21T22:54:50.025Z,10.10
2023-04-21T22:57:16.696Z,14.27
2023-04-21T22:59:43.471Z,10.95
2023-04-21T23:02:10.568Z,11.10
2023-04-21T23:04:37.675Z,12.18
2023-04-21T23:07:05.174Z,9.98
2023-04-21T23:09:31.947Z,11.02
2023-04-21T23:11:59.030Z,12.35
2023-04-21T23:14:26.201Z,13.07
2023-04-21T23:16:53.092Z,12.23
2023-04-21T23:19:21.908Z,11.70
2023-04-21T23:21:49.529Z,13.10
2023-04-21T23:24:16.380Z,14.25
2023-04-21T23:26:43.110Z,11.43
2023-04-21T23:29:09.963Z,13.10
2023-04-21T23:31:37.473Z,13.25
2023-04-21T23:34:07.613Z,10.65
2023-04-21T23:36:34.798Z,10.70
2023-04-21T23:39:02.191Z,12.63
2023-04-21T23:41:29.248Z,12.32
2023-04-21T23:43:56.248Z,14.80
2023-04-21T23:46:23.248Z,14.27
2023-04-21T23:48:50.866Z,14.90
2023-04-21T23:51:18.685Z,11.55
2023-04-21T23:53:46.146Z,10.38
2023-04-21T23:56:13.178Z,13.07
2023-04-21T23:58:40.058Z,12.48
